San Leandro, CA

6:52 PM PDT on September 02, 2014 (GMT -0700)
San Carlos | Change Station
CLOSE
Current Station
Airport
Location: San Carlos,
Elevation: 3 ft
Nearby Weather Stations

Elev 3 ft 37.51 °N, 122.25 °W | Updated 1 hour ago

Partly Cloudy
Partly Cloudy
75 °F
Feels Like 75 °F
N
9
Wind Variable Wind from West

Today
High -- | Low -- °F
--% Chance of Precip.
Yesterday
High -- | Low -- °F
Precip. -- in
6:39 AM 7:36 PM
First Quarter, 57% visible
Pressure 29.78 in
Visibility 10.0 miles
Clouds Few 1200 ft
Dew Point 57 °F
Humidity 53%
Rainfall 0.00 in
Snow Depth Not available.
UV 1 out of 12
Pollen 7.30 out of 12
PM2.5 Good
Flu Activity Not available.
METAR KSQL 030047Z 28008KT 10SM FEW012 24/14 A2978

More Conditions Fewer Conditions

Pressure 29.78 in
Visibility 10.0 miles
Clouds Few 1200 ft
Dew Point 57 °F
Humidity 53%
Rainfall 0.00 in
Snow Depth Not available.
UV 1 out of 12
Pollen 7.30 out of 12
PM2.5 Good
Flu Activity Not available.
METAR KSQL 030047Z 28008KT 10SM FEW012 24/14 A2978

More Conditions Fewer Conditions

10-Day Weather Forecast

Almanac

Astronomy

Sep. 02, 2014 Rise Set
Actual Time 6:39 AM PDT 7:36 PM PDT
Civil Twilight 6:12 AM PDT 8:02 PM PDT
Nautical Twilight 5:41 AM PDT 8:34 PM PDT
Astronomical Twilight 5:08 AM PDT 9:07 PM PDT
Moon 2:21 PM PDT (9/2) No Moon Set
Length of Visible Light 13h 50m
Length of Day
12h 56m
Tomorrow will be 2m 19s shorter.
First Quarter, 57% of the Moon is Illuminated
Today
First Quarter
Sep 8
Full
Sep 15
Last Quarter
Sep 24
New
Oct 1
First Quarter

Today's Extremes

State Highs State Lows

Community

WunderPhotos

Upload Photos

1,749,829 photos uploaded!

Nearby

Air Quality

  Air Quality AQ Index Pollutant
Yesterday Moderate
PM2.5
Yesterday Good
OZONE
Current Good
PM2.5
Tuesday Good
PM2.5
Wednesday Good
PM2.5
Thursday Good
PM2.5
Friday Good
PM2.5
Saturday Good
PM2.5
Sunday Good
PM2.5

Snow Depth

Station Depth Elevation
Summit Meadow 0 in 9122 ft
Adin Mountain 0 in 6200 ft

Earthquake Activity

City Distance Mag. Time & Date
Cobb, California 82 miles 2.5 12:00 PM PDT
2014-09-02
Yountville, California 45 miles 2.6 1:15 PM PDT
2014-09-01
Gilroy, California 63 miles 3.4 9:10 AM PDT
2014-09-01
Green Valley, California 36 miles 2.5 6:37 AM PDT
2014-08-31
Minimum magnitude displayed is 2.5.

Coastal Water Temperatures

Place Temperature
No Stations Reporting

Nearby Weather Stations